Terminal Aerodrome Forecast
Issued by NWS Twin Cities, MN

Home | Current Version | Previous Version | Text Only | Print | Product List | Glossary On
Versions: 1 2 3 4 5 6 7 8 9 10 11 12 13 14 15 16 17 18 19 20
847
FTUS43 KMPX 240702 AAA
TAFEAU
TAF AMD
KEAU 240702Z 2407/2506 VRB03KT P6SM SCT008 OVC012
      TEMPO 2407/2409 OVC008
     FM240900 16004KT P6SM VCSH OVC008
      TEMPO 2410/2412 2SM TSRA BKN005CB
     FM241200 20004KT P6SM VCSH OVC005
     FM241400 27007KT P6SM BKN010 OVC250
     FM241600 28010G17KT P6SM SCT020 BKN250
     FM250100 27006KT P6SM FEW250=

USA.gov is the U.S. government's official web portal to all federal, state and local government web resources and services.